Time;durP1;ratioP1;P1;durP2;ratioP2;P2;SDS_P1;SDS_P2;PMS_P1;PMS_P2;Temp;Humidity;BMP_temperature;BMP_pressure;BME280_temperature;BME280_humidity;BME280_pressure;Samples;Min_cycle;Max_cycle;Signal;HPM_P1;HPM_P2
2022/03/16 00:00:11;;;;;;;28.43;22.73;;;;;;;7.59;100.00;97362.22;5113398;28;20757;-65
2022/03/16 00:02:36;;;;;;;29.05;23.25;;;;;;;7.53;100.00;97366.41;5112668;28;20396;-66
2022/03/16 00:05:02;;;;;;;30.63;23.67;;;;;;;7.49;100.00;97369.59;5112975;28;20404;-66
2022/03/16 00:07:28;;;;;;;30.52;23.70;;;;;;;7.40;100.00;97368.16;5113140;28;20844;-66
2022/03/16 00:09:53;;;;;;;33.47;25.23;;;;;;;7.56;100.00;97367.84;5094593;28;20443;-65
2022/03/16 00:12:19;;;;;;;34.40;26.13;;;;;;;7.46;100.00;97357.78;5111972;28;20410;-65
2022/03/16 00:14:45;;;;;;;32.33;25.10;;;;;;;7.57;100.00;97366.84;5113039;28;20802;-65
2022/03/16 00:17:10;;;;;;;32.70;25.17;;;;;;;7.53;100.00;97365.59;5113294;28;20511;-65
2022/03/16 00:19:36;;;;;;;33.27;24.73;;;;;;;7.49;100.00;97367.81;5112975;28;20400;-65
2022/03/16 00:22:04;;;;;;;34.70;25.45;;;;;;;7.56;100.00;97370.47;5094349;28;20384;-65
2022/03/16 00:24:30;;;;;;;31.90;24.88;;;;;;;7.45;100.00;97371.00;5112208;28;20479;-65
2022/03/16 00:26:55;;;;;;;39.97;28.00;;;;;;;7.33;100.00;97364.69;5112748;28;20404;-65
2022/03/16 00:29:21;;;;;;;40.58;27.52;;;;;;;7.39;100.00;97361.34;5094342;28;20501;-65
2022/03/16 00:31:47;;;;;;;39.23;29.40;;;;;;;7.35;100.00;97371.34;5111618;28;20411;-64
2022/03/16 00:34:12;;;;;;;43.43;31.63;;;;;;;7.09;100.00;97358.94;5112562;28;20376;-64
2022/03/16 00:36:38;;;;;;;44.47;31.90;;;;;;;7.04;100.00;97363.09;5112131;28;20482;-64
2022/03/16 00:39:04;;;;;;;47.30;32.13;;;;;;;7.01;100.00;97371.31;5112018;28;20503;-65
2022/03/16 00:41:30;;;;;;;47.33;32.25;;;;;;;6.88;100.00;97366.81;5112109;28;20983;-65
2022/03/16 00:43:55;;;;;;;46.20;32.08;;;;;;;6.88;100.00;97366.00;5112654;28;20437;-64
2022/03/16 00:46:21;;;;;;;47.37;32.10;;;;;;;7.14;100.00;97366.19;5112259;28;20386;-65
2022/03/16 00:48:46;;;;;;;45.17;31.80;;;;;;;7.29;100.00;97369.50;5112424;28;20395;-65
2022/03/16 00:51:11;;;;;;;44.00;31.33;;;;;;;7.26;100.00;97374.28;5111693;28;20868;-65
2022/03/16 00:53:39;;;;;;;41.87;30.57;;;;;;;7.48;100.00;97368.00;5093986;28;20389;-65
2022/03/16 00:56:06;;;;;;;42.88;30.98;;;;;;;7.60;100.00;97366.47;5112514;28;20384;-64
2022/03/16 00:58:32;;;;;;;43.63;31.40;;;;;;;7.36;100.00;97372.13;5094077;28;20396;-64
2022/03/16 01:00:58;;;;;;;46.93;32.63;;;;;;;7.49;100.00;97362.59;5094234;28;20683;-65
2022/03/16 01:03:23;;;;;;;45.78;31.83;;;;;;;7.32;100.00;97369.09;5093531;28;20876;-65
2022/03/16 01:05:49;;;;;;;46.07;32.30;;;;;;;7.36;100.00;97369.53;5111575;28;20401;-66
2022/03/16 01:08:14;;;;;;;45.50;32.53;;;;;;;7.36;100.00;97372.94;5111730;28;20443;-65
2022/03/16 01:10:39;;;;;;;51.80;32.43;;;;;;;7.52;100.00;97361.41;5111946;28;20391;-66
2022/03/16 01:13:06;;;;;;;45.50;32.83;;;;;;;7.50;100.00;97358.19;5111250;28;20391;-65
2022/03/16 01:15:31;;;;;;;52.30;33.70;;;;;;;7.41;100.00;97356.75;5111643;28;20930;-65
2022/03/16 01:17:56;;;;;;;54.67;34.95;;;;;;;7.38;100.00;97350.09;5111580;28;20397;-64
2022/03/16 01:20:22;;;;;;;54.90;34.97;;;;;;;7.47;100.00;97353.34;5111632;28;20888;-65
2022/03/16 01:22:47;;;;;;;55.40;36.15;;;;;;;7.62;100.00;97355.84;5111316;28;20384;-66
2022/03/16 01:25:13;;;;;;;68.80;36.93;;;;;;;7.61;100.00;97346.41;5112002;28;20765;-65
2022/03/16 01:27:38;;;;;;;53.97;35.20;;;;;;;7.28;100.00;97362.69;5094034;28;20877;-65
2022/03/16 01:30:05;;;;;;;54.90;34.53;;;;;;;7.27;100.00;97357.66;5093237;28;20832;-65
2022/03/16 01:32:30;;;;;;;53.78;34.80;;;;;;;7.09;100.00;97352.91;5111317;28;20438;-67
2022/03/16 01:34:55;;;;;;;52.90;35.17;;;;;;;7.34;100.00;97343.66;5111296;28;20475;-65
2022/03/16 01:37:21;;;;;;;54.30;35.63;;;;;;;7.21;100.00;97351.41;5111121;28;20384;-65
2022/03/16 01:39:47;;;;;;;50.08;35.13;;;;;;;6.99;100.00;97353.25;5111461;28;20427;-65
2022/03/16 01:42:13;;;;;;;52.28;36.00;;;;;;;7.12;100.00;97356.94;5113490;28;20397;-65
2022/03/16 01:44:52;;;;;;;50.95;35.22;;;;;;;7.32;100.00;97363.09;5115569;28;20400;-65
2022/03/16 01:47:20;;;;;;;51.08;34.85;;;;;;;7.45;100.00;97352.75;5115731;28;20408;-65
2022/03/16 01:49:47;;;;;;;49.73;34.60;;;;;;;7.59;100.00;97361.44;5115221;28;20849;-65
2022/03/16 01:52:19;;;;;;;51.20;34.75;;;;;;;7.68;100.00;97360.28;5115435;28;20381;-65
2022/03/16 01:54:45;;;;;;;48.30;34.03;;;;;;;7.47;100.00;97353.34;5115554;28;20437;-65
2022/03/16 01:57:11;;;;;;;49.73;34.53;;;;;;;7.74;100.00;97362.94;5115636;28;20376;-65
2022/03/16 01:59:37;;;;;;;49.45;34.63;;;;;;;7.94;100.00;97360.38;5115292;28;20384;-65
2022/03/16 02:02:07;;;;;;;49.90;34.07;;;;;;;7.96;100.00;97353.16;5095865;28;20873;-66
2022/03/16 02:04:33;;;;;;;49.13;33.47;;;;;;;7.79;100.00;97352.72;5094063;28;20396;-65
2022/03/16 02:06:59;;;;;;;48.63;33.83;;;;;;;7.92;100.00;97357.97;5114961;28;20419;-65
2022/03/16 02:09:25;;;;;;;48.38;33.83;;;;;;;7.73;100.00;97347.47;5114189;28;20399;-64
2022/03/16 02:11:50;;;;;;;49.00;33.55;;;;;;;7.79;100.00;97359.72;5113777;28;20737;-66
2022/03/16 02:14:17;;;;;;;48.30;32.77;;;;;;;7.57;100.00;97355.63;5114983;28;20384;-65
2022/03/16 02:16:46;;;;;;;49.13;32.80;;;;;;;7.84;100.00;97354.72;5114773;28;20384;-65
2022/03/16 02:19:12;;;;;;;47.50;33.53;;;;;;;7.63;100.00;97355.66;5115054;28;20388;-65
2022/03/16 02:21:38;;;;;;;49.43;33.70;;;;;;;7.62;100.00;97356.66;5096899;28;20376;-65
2022/03/16 02:24:05;;;;;;;45.25;32.17;;;;;;;7.51;100.00;97352.78;5114956;28;20412;-66
2022/03/16 02:26:30;;;;;;;47.83;33.15;;;;;;;7.53;100.00;97355.19;5115157;28;20476;-65
2022/03/16 02:28:57;;;;;;;45.53;32.85;;;;;;;7.58;100.00;97352.78;5096864;28;20404;-64
2022/03/16 02:31:23;;;;;;;45.50;33.38;;;;;;;7.46;100.00;97357.78;5114733;28;20396;-65
2022/03/16 02:33:49;;;;;;;48.22;33.67;;;;;;;7.80;100.00;97350.91;5096419;28;20431;-64
2022/03/16 02:36:14;;;;;;;46.00;32.80;;;;;;;7.55;100.00;97347.97;5096660;28;20496;-65
2022/03/16 02:38:40;;;;;;;47.73;34.10;;;;;;;7.67;100.00;97358.66;5114519;28;20901;-66
2022/03/16 02:41:05;;;;;;;48.83;34.37;;;;;;;7.66;100.00;97357.84;5114163;28;20408;-65
2022/03/16 02:43:30;;;;;;;51.25;34.17;;;;;;;7.54;100.00;97356.78;5114697;28;20384;-65
2022/03/16 02:45:56;;;;;;;49.63;33.57;;;;;;;7.84;100.00;97352.94;5114149;28;20392;-65
2022/03/16 02:48:21;;;;;;;50.78;34.40;;;;;;;7.64;100.00;97351.22;5114248;28;20418;-65
2022/03/16 02:50:48;;;;;;;48.28;32.85;;;;;;;7.45;100.00;97350.94;5113706;28;20423;-66
2022/03/16 02:53:15;;;;;;;46.92;33.72;;;;;;;7.64;100.00;97356.44;5113422;28;20441;-64
2022/03/16 02:55:40;;;;;;;47.83;33.72;;;;;;;7.59;100.00;97357.00;5095952;28;20393;-65
2022/03/16 02:58:08;;;;;;;45.78;33.60;;;;;;;7.56;100.00;97357.41;5114220;28;20735;-65
2022/03/16 03:00:33;;;;;;;50.47;34.53;;;;;;;7.79;100.00;97355.31;5095257;28;20408;-65
2022/03/16 03:02:59;;;;;;;50.72;33.92;;;;;;;7.83;100.00;97353.13;5095852;28;20391;-65
2022/03/16 03:05:24;;;;;;;52.97;35.10;;;;;;;7.78;100.00;97360.72;5114030;28;20925;-65
2022/03/16 03:07:50;;;;;;;50.30;33.43;;;;;;;7.38;100.00;97365.75;5113881;28;20419;-65
2022/03/16 03:10:15;;;;;;;51.42;34.55;;;;;;;7.29;100.00;97364.28;5113727;28;20392;-65
2022/03/16 03:12:40;;;;;;;52.73;34.93;;;;;;;7.42;100.00;97363.53;5113186;28;20400;-64
2022/03/16 03:15:10;;;;;;;50.65;34.25;;;;;;;7.24;100.00;97365.88;5113986;28;20472;-64
2022/03/16 03:17:36;;;;;;;56.95;36.47;;;;;;;7.72;100.00;97357.09;5113911;28;20825;-64
2022/03/16 03:20:01;;;;;;;56.60;36.35;;;;;;;7.61;100.00;97362.03;5113500;28;20412;-64
2022/03/16 03:22:27;;;;;;;58.33;36.33;;;;;;;7.55;100.00;97362.81;5113536;28;20400;-65
2022/03/16 03:24:54;;;;;;;59.55;36.42;;;;;;;7.55;100.00;97363.63;5094818;28;20384;-65
2022/03/16 03:27:19;;;;;;;55.30;36.45;;;;;;;7.45;100.00;97368.38;5113672;28;20423;-64
2022/03/16 03:29:45;;;;;;;58.43;36.20;;;;;;;7.66;100.00;97372.72;5095035;28;20395;-65
2022/03/16 03:32:10;;;;;;;55.13;35.30;;;;;;;7.43;100.00;97381.63;5114132;28;20865;-64
2022/03/16 03:34:35;;;;;;;53.93;34.97;;;;;;;7.38;100.00;97381.38;5113161;28;20449;-65
2022/03/16 03:37:01;;;;;;;54.72;35.30;;;;;;;7.44;100.00;97374.59;5113009;28;20387;-64
2022/03/16 03:39:26;;;;;;;52.87;35.03;;;;;;;7.47;100.00;97364.56;5113213;28;20404;-64
2022/03/16 03:41:52;;;;;;;49.87;32.67;;;;;;;7.65;100.00;97369.28;5113684;28;20873;-65
2022/03/16 03:44:17;;;;;;;47.53;32.27;;;;;;;7.71;100.00;97372.94;5113398;28;20388;-65
2022/03/16 03:46:43;;;;;;;50.00;33.63;;;;;;;7.64;100.00;97377.31;5113281;28;20423;-65
2022/03/16 03:49:08;;;;;;;46.63;32.03;;;;;;;7.47;100.00;97371.59;5113265;28;20430;-65
2022/03/16 03:51:33;;;;;;;47.43;32.70;;;;;;;7.70;100.00;97368.69;5113009;28;20520;-65
2022/03/16 03:53:59;;;;;;;47.07;31.67;;;;;;;7.71;100.00;97362.50;5095095;28;20395;-65
2022/03/16 03:56:24;;;;;;;47.37;32.17;;;;;;;7.65;100.00;97373.69;5113006;28;20385;-65
2022/03/16 03:58:49;;;;;;;45.47;32.07;;;;;;;7.78;100.00;97376.38;5113004;28;20412;-65
2022/03/16 04:01:15;;;;;;;49.75;33.30;;;;;;;7.67;100.00;97380.34;5094469;28;20388;-65
2022/03/16 04:03:42;;;;;;;46.55;32.47;;;;;;;7.75;100.00;97384.56;5112987;28;20556;-65
2022/03/16 04:06:08;;;;;;;46.38;32.53;;;;;;;7.91;100.00;97379.84;5112715;28;20448;-65
2022/03/16 04:08:34;;;;;;;48.33;33.13;;;;;;;7.99;100.00;97385.91;5112743;28;20412;-65
2022/03/16 04:10:59;;;;;;;45.00;31.80;;;;;;;7.83;100.00;97387.03;5112141;28;20740;-65
2022/03/16 04:13:25;;;;;;;48.50;32.90;;;;;;;7.98;100.00;97385.09;5112312;28;20476;-65
2022/03/16 04:15:50;;;;;;;45.77;32.47;;;;;;;7.64;100.00;97379.91;5112978;28;20424;-65
2022/03/16 04:18:15;;;;;;;47.43;32.17;;;;;;;7.61;100.00;97381.13;5112508;28;20516;-65
2022/03/16 04:20:41;;;;;;;42.70;30.57;;;;;;;7.71;100.00;97378.94;5094150;28;20396;-66
2022/03/16 04:23:06;;;;;;;46.03;32.10;;;;;;;7.65;100.00;97382.34;5112437;28;20384;-65
2022/03/16 04:25:32;;;;;;;45.43;31.57;;;;;;;8.02;100.00;97382.91;5112495;28;20467;-65
2022/03/16 04:27:57;;;;;;;43.15;31.15;;;;;;;7.88;100.00;97389.88;5112522;28;20423;-65
2022/03/16 04:30:22;;;;;;;47.83;32.13;;;;;;;7.76;100.00;97383.59;5112625;28;20391;-66
2022/03/16 04:32:52;;;;;;;46.92;31.63;;;;;;;7.87;100.00;97391.66;5112594;28;20388;-65
2022/03/16 04:35:19;;;;;;;47.97;32.83;;;;;;;7.94;100.00;97392.50;5112168;28;20389;-65
2022/03/16 04:37:45;;;;;;;47.22;32.63;;;;;;;8.06;100.00;97379.72;5112972;28;20394;-67
2022/03/16 04:40:11;;;;;;;51.95;34.83;;;;;;;8.02;100.00;97381.09;5112044;28;20412;-65
2022/03/16 04:42:37;;;;;;;78.07;37.05;;;;;;;7.85;100.00;97382.44;5094093;28;20915;-65
2022/03/16 04:45:03;;;;;;;99.00;36.33;;;;;;;7.54;100.00;97385.47;5112201;28;20392;-65
2022/03/16 04:47:28;;;;;;;169.35;38.45;;;;;;;7.32;100.00;97389.16;5112079;28;20491;-63
2022/03/16 04:49:54;;;;;;;76.93;38.72;;;;;;;7.38;100.00;97386.59;5111220;28;20503;-63
2022/03/16 04:52:19;;;;;;;93.97;39.73;;;;;;;7.26;100.00;97387.31;5111987;28;20865;-63
2022/03/16 04:54:44;;;;;;;139.40;39.07;;;;;;;7.38;100.00;97388.41;5111850;28;20384;-63
2022/03/16 04:57:10;;;;;;;261.63;42.03;;;;;;;7.31;100.00;97387.53;5093111;28;20388;-63
2022/03/16 04:59:35;;;;;;;161.37;40.80;;;;;;;7.33;100.00;97390.78;5111443;28;20384;-63
2022/03/16 05:02:00;;;;;;;337.17;43.77;;;;;;;7.11;100.00;97390.03;5111058;28;20484;-64
2022/03/16 05:04:26;;;;;;;273.47;44.80;;;;;;;6.99;100.00;97389.75;5111796;28;20861;-63
2022/03/16 05:06:51;;;;;;;221.00;45.70;;;;;;;7.02;100.00;97396.38;5111815;28;20825;-63
2022/03/16 05:09:17;;;;;;;202.13;44.93;;;;;;;7.14;100.00;97388.81;5111823;28;20391;-63
2022/03/16 05:11:42;;;;;;;107.27;44.37;;;;;;;7.18;100.00;97395.28;5093115;28;20422;-66
2022/03/16 05:14:09;;;;;;;105.70;46.78;;;;;;;7.21;100.00;97397.50;5101625;28;20389;-63
2022/03/16 05:16:35;;;;;;;133.35;46.65;;;;;;;7.32;100.00;97403.00;5112468;28;20540;-66
2022/03/16 05:19:01;;;;;;;116.85;47.20;;;;;;;7.30;100.00;97399.78;5115467;28;20395;-64
2022/03/16 05:21:26;;;;;;;128.15;47.70;;;;;;;7.43;100.00;97397.25;5115965;28;20745;-64
2022/03/16 05:23:51;;;;;;;83.60;46.30;;;;;;;7.41;100.00;97390.66;5116123;28;20461;-64
2022/03/16 05:26:17;;;;;;;77.43;45.97;;;;;;;7.39;100.00;97400.44;5116036;28;20836;-64
2022/03/16 05:28:42;;;;;;;81.67;47.60;;;;;;;7.34;100.00;97398.41;5115929;28;20391;-64
2022/03/16 05:31:08;;;;;;;80.90;46.60;;;;;;;7.56;100.00;97400.94;5115563;28;20726;-64
2022/03/16 05:33:34;;;;;;;77.32;45.08;;;;;;;7.47;100.00;97403.69;5115671;28;20880;-64
2022/03/16 05:35:59;;;;;;;75.80;41.87;;;;;;;7.30;100.00;97402.38;5097212;28;20428;-64
2022/03/16 05:38:24;;;;;;;75.17;43.47;;;;;;;7.27;100.00;97409.78;5097535;28;20476;-63
2022/03/16 05:40:50;;;;;;;71.83;44.27;;;;;;;7.59;100.00;97413.59;5115567;28;20404;-64
2022/03/16 05:43:15;;;;;;;74.60;45.17;;;;;;;7.61;100.00;97425.47;5115516;28;20427;-65
2022/03/16 05:45:41;;;;;;;69.00;45.57;;;;;;;7.46;100.00;97416.94;5115122;28;20388;-65
2022/03/16 05:48:06;;;;;;;65.93;42.83;;;;;;;7.60;100.00;97420.44;5115147;28;20415;-65
2022/03/16 05:50:32;;;;;;;64.55;42.40;;;;;;;7.36;100.00;97416.47;5114924;28;20426;-64
2022/03/16 05:52:59;;;;;;;56.85;38.53;;;;;;;7.29;100.00;97420.84;5115251;28;20380;-65
2022/03/16 05:55:26;;;;;;;56.65;37.40;;;;;;;7.38;100.00;97420.50;5115782;28;20467;-65
2022/03/16 05:57:52;;;;;;;57.58;37.88;;;;;;;7.33;100.00;97427.28;5115050;28;20398;-64
2022/03/16 06:00:19;;;;;;;55.13;36.75;;;;;;;7.47;100.00;97424.56;5115010;28;20399;-65
2022/03/16 06:02:44;;;;;;;54.08;35.42;;;;;;;7.42;100.00;97424.34;5114915;28;20471;-65
2022/03/16 06:05:10;;;;;;;54.80;36.70;;;;;;;7.71;100.00;97425.09;5114821;28;20487;-65
2022/03/16 06:07:37;;;;;;;60.60;39.22;;;;;;;7.88;100.00;97418.56;5115230;28;20415;-65
2022/03/16 06:10:07;;;;;;;60.08;39.58;;;;;;;7.65;100.00;97431.91;5114891;28;20491;-65
2022/03/16 06:12:32;;;;;;;58.07;40.17;;;;;;;7.83;100.00;97421.78;5114330;28;20410;-64
2022/03/16 06:14:58;;;;;;;58.47;40.03;;;;;;;7.79;100.00;97430.19;5115099;28;20512;-64
2022/03/16 06:17:23;;;;;;;57.58;37.88;;;;;;;7.91;100.00;97423.44;5114663;28;20479;-64
2022/03/16 06:19:49;;;;;;;57.50;38.33;;;;;;;7.77;100.00;97438.19;5115067;28;20856;-64
2022/03/16 06:22:14;;;;;;;59.35;38.90;;;;;;;7.75;100.00;97444.59;5114036;28;20441;-65
2022/03/16 06:24:40;;;;;;;60.63;38.92;;;;;;;7.47;100.00;97442.00;5095912;28;20388;-64
2022/03/16 06:27:06;;;;;;;65.67;41.57;;;;;;;7.43;100.00;97452.03;5114569;28;20430;-64
2022/03/16 06:29:32;;;;;;;64.90;42.80;;;;;;;7.65;100.00;97447.56;5112966;28;20514;-65
2022/03/16 06:31:57;;;;;;;60.13;38.10;;;;;;;7.42;100.00;97452.22;5114611;28;20403;-65
2022/03/16 06:34:22;;;;;;;58.50;37.37;;;;;;;7.70;100.00;97444.38;5114250;28;20493;-65
2022/03/16 06:36:48;;;;;;;60.43;38.07;;;;;;;7.88;100.00;97452.50;5113782;28;20794;-66
2022/03/16 06:39:13;;;;;;;59.27;36.07;;;;;;;7.93;100.00;97445.72;5095370;28;20531;-65
2022/03/16 06:41:39;;;;;;;57.27;35.30;;;;;;;7.83;100.00;97453.09;5114455;28;20386;-64
2022/03/16 06:44:05;;;;;;;57.57;35.70;;;;;;;7.77;100.00;97447.81;5113994;28;20753;-65
2022/03/16 06:46:30;;;;;;;53.85;33.53;;;;;;;7.98;100.00;97455.56;5113505;28;20414;-64
2022/03/16 06:48:55;;;;;;;58.27;35.67;;;;;;;8.20;100.00;97451.03;5113973;28;20446;-64
2022/03/16 06:51:21;;;;;;;61.70;35.33;;;;;;;8.35;100.00;97451.75;5113885;28;20453;-64
2022/03/16 06:53:46;;;;;;;57.22;34.63;;;;;;;8.24;100.00;97457.50;5113960;28;20814;-65
2022/03/16 06:56:12;;;;;;;56.20;35.43;;;;;;;8.28;100.00;97463.94;5114320;28;20392;-65
2022/03/16 06:58:37;;;;;;;55.93;35.50;;;;;;;8.15;100.00;97459.47;5114256;28;20416;-65
2022/03/16 07:01:03;;;;;;;57.37;34.73;;;;;;;8.17;100.00;97456.66;5114372;28;20388;-65
2022/03/16 07:03:28;;;;;;;55.80;34.75;;;;;;;8.21;100.00;97461.28;5113901;28;20399;-65
2022/03/16 07:05:54;;;;;;;56.63;35.37;;;;;;;8.10;100.00;97461.84;5095762;28;20384;-66
2022/03/16 07:08:19;;;;;;;49.77;33.10;;;;;;;8.11;100.00;97453.03;5113615;28;20403;-66
2022/03/16 07:10:45;;;;;;;57.30;34.77;;;;;;;8.06;100.00;97455.41;5113854;28;20392;-65
2022/03/16 07:13:11;;;;;;;54.97;34.23;;;;;;;7.92;100.00;97461.56;5113245;28;20465;-65
2022/03/16 07:15:39;;;;;;;53.50;32.47;;;;;;;7.64;100.00;97455.56;5113875;28;20400;-65
2022/03/16 07:18:04;;;;;;;53.30;33.88;;;;;;;7.77;100.00;97466.91;5113527;28;20449;-63
2022/03/16 07:20:31;;;;;;;54.93;34.77;;;;;;;7.94;100.00;97464.78;5113107;28;20384;-64
2022/03/16 07:23:10;;;;;;;52.08;33.08;;;;;;;7.94;100.00;97465.59;5113081;28;20395;-63
2022/03/16 07:25:42;;;;;;;52.30;33.87;;;;;;;7.99;100.00;97475.44;5111469;28;20400;-63
2022/03/16 07:28:08;;;;;;;49.05;32.17;;;;;;;8.17;100.00;97473.13;5112775;28;20822;-66
2022/03/16 07:30:34;;;;;;;47.47;32.27;;;;;;;8.17;100.00;97469.72;5112812;28;20393;-63
2022/03/16 07:33:01;;;;;;;48.88;30.27;;;;;;;7.97;100.00;97485.25;5112276;28;20428;-64
2022/03/16 07:35:27;;;;;;;51.53;31.25;;;;;;;8.09;100.00;97483.72;5113315;28;20403;-64
2022/03/16 07:37:55;;;;;;;49.08;30.30;;;;;;;7.97;100.00;97479.28;5113019;28;20392;-63
2022/03/16 07:40:21;;;;;;;47.23;30.33;;;;;;;8.05;100.00;97490.34;5093726;28;20423;-64
2022/03/16 07:42:47;;;;;;;39.17;26.90;;;;;;;8.05;100.00;97492.16;5112655;28;20400;-64
2022/03/16 07:45:15;;;;;;;41.73;27.57;;;;;;;8.24;100.00;97484.44;5112885;28;20389;-64
2022/03/16 07:47:41;;;;;;;41.72;27.30;;;;;;;7.96;100.00;97490.69;5094424;28;20400;-65
2022/03/16 07:50:09;;;;;;;38.70;27.27;;;;;;;8.04;100.00;97493.94;5112662;28;20489;-64
2022/03/16 07:52:35;;;;;;;41.20;26.85;;;;;;;8.32;100.00;97492.09;5112684;28;20420;-64
2022/03/16 07:55:00;;;;;;;42.17;27.65;;;;;;;8.49;100.00;97497.00;5113084;28;20922;-64
2022/03/16 07:57:26;;;;;;;42.55;28.10;;;;;;;8.72;100.00;97500.09;5113134;28;20799;-65
2022/03/16 07:59:51;;;;;;;40.10;25.50;;;;;;;8.85;100.00;97499.31;5112534;28;20416;-65
2022/03/16 08:02:17;;;;;;;37.67;26.77;;;;;;;8.84;100.00;97492.47;5093670;28;20388;-66
2022/03/16 08:04:42;;;;;;;36.90;26.20;;;;;;;8.54;100.00;97499.81;5112732;28;20388;-64
2022/03/16 08:07:09;;;;;;;44.47;28.00;;;;;;;8.84;100.00;97500.31;5112288;28;20481;-65
2022/03/16 08:09:36;;;;;;;44.13;28.40;;;;;;;8.43;100.00;97503.00;5113109;28;20396;-64
2022/03/16 08:12:02;;;;;;;43.70;29.67;;;;;;;8.38;100.00;97497.56;5111895;28;20416;-64
2022/03/16 08:14:27;;;;;;;44.83;29.58;;;;;;;8.19;100.00;97505.06;5112331;28;20452;-64
2022/03/16 08:16:53;;;;;;;41.57;28.67;;;;;;;8.18;100.00;97510.50;5112262;28;20860;-65
2022/03/16 08:19:19;;;;;;;45.70;30.10;;;;;;;8.22;100.00;97507.31;5111715;28;20388;-64
2022/03/16 08:21:45;;;;;;;46.58;30.88;;;;;;;7.72;100.00;97505.81;5111931;28;20809;-64
2022/03/16 08:24:10;;;;;;;43.58;28.73;;;;;;;8.02;100.00;97503.00;5111919;28;20471;-64
2022/03/16 08:26:36;;;;;;;41.23;27.90;;;;;;;8.10;100.00;97493.19;5112163;28;20384;-64
2022/03/16 08:29:02;;;;;;;43.63;29.08;;;;;;;8.14;100.00;97494.41;5111514;28;20388;-65
2022/03/16 08:31:27;;;;;;;40.80;27.37;;;;;;;7.96;100.00;97503.75;5111824;28;20779;-66
2022/03/16 08:33:52;;;;;;;42.40;28.23;;;;;;;8.12;100.00;97500.81;5111746;28;20384;-64
2022/03/16 08:36:18;;;;;;;39.77;27.00;;;;;;;8.12;100.00;97493.81;5111753;28;20457;-64
2022/03/16 08:38:43;;;;;;;40.30;27.13;;;;;;;7.97;100.00;97490.47;5111593;28;20848;-63
2022/03/16 08:41:10;;;;;;;40.60;27.13;;;;;;;8.26;100.00;97492.84;5110826;28;20401;-64
2022/03/16 08:43:37;;;;;;;38.33;27.67;;;;;;;8.35;100.00;97493.53;5093370;28;20420;-65
2022/03/16 08:46:03;;;;;;;38.88;28.10;;;;;;;7.91;100.00;97499.13;5111595;28;20400;-65
2022/03/16 08:48:29;;;;;;;39.83;28.38;;;;;;;8.32;100.00;97491.31;5111594;28;20447;-64
2022/03/16 08:50:55;;;;;;;35.58;26.23;;;;;;;8.66;100.00;97495.66;5110750;28;20437;-65
2022/03/16 08:53:20;;;;;;;36.40;25.23;;;;;;;8.53;100.00;97490.38;5111342;28;20392;-64
2022/03/16 08:55:46;;;;;;;35.00;24.63;;;;;;;8.69;100.00;97493.44;5111621;28;20408;-64
2022/03/16 08:58:14;;;;;;;35.35;24.98;;;;;;;8.86;100.00;97480.81;5093442;28;20392;-65
2022/03/16 09:00:41;;;;;;;36.30;25.42;;;;;;;8.89;100.00;97490.06;5111343;28;20392;-65
2022/03/16 09:03:06;;;;;;;34.38;24.48;;;;;;;8.37;100.00;97488.91;5111561;28;20411;-64
2022/03/16 09:05:32;;;;;;;35.40;24.85;;;;;;;8.44;100.00;97494.16;5111362;28;20401;-65
2022/03/16 09:07:57;;;;;;;35.13;26.30;;;;;;;8.34;100.00;97490.13;5111448;28;20468;-65
2022/03/16 09:10:23;;;;;;;35.03;26.73;;;;;;;8.47;100.00;97486.72;5111600;28;20430;-64
2022/03/16 09:12:48;;;;;;;34.37;25.43;;;;;;;8.44;100.00;97488.94;5110732;28;20420;-64
2022/03/16 09:15:14;;;;;;;35.92;26.08;;;;;;;8.84;100.00;97482.03;5093289;28;20388;-64
2022/03/16 09:17:39;;;;;;;36.05;26.48;;;;;;;9.08;100.00;97486.69;5111324;28;20445;-65
2022/03/16 09:20:05;;;;;;;34.80;25.20;;;;;;;9.22;100.00;97487.50;5111201;28;20384;-64
2022/03/16 09:22:31;;;;;;;31.90;23.70;;;;;;;8.76;100.00;97483.81;5093283;28;20849;-64
2022/03/16 09:24:56;;;;;;;34.90;23.83;;;;;;;8.40;100.00;97483.31;5111067;28;20392;-64
2022/03/16 09:27:23;;;;;;;33.90;24.47;;;;;;;8.54;100.00;97479.72;5111863;28;20419;-64
2022/03/16 09:29:49;;;;;;;33.10;24.20;;;;;;;8.90;100.00;97476.81;5111808;28;20385;-64
2022/03/16 09:32:14;;;;;;;31.67;23.15;;;;;;;8.98;100.00;97481.03;5111410;28;20467;-64
2022/03/16 09:34:40;;;;;;;31.50;22.43;;;;;;;8.83;100.00;97480.41;5110784;28;20380;-65
2022/03/16 09:37:07;;;;;;;30.85;22.00;;;;;;;8.63;100.00;97478.56;5111236;28;20741;-65
2022/03/16 09:39:33;;;;;;;28.08;21.27;;;;;;;8.73;100.00;97480.78;5111127;28;20424;-64
2022/03/16 09:41:59;;;;;;;28.73;21.80;;;;;;;8.70;100.00;97481.97;5111262;28;20392;-64
2022/03/16 09:44:27;;;;;;;28.20;21.20;;;;;;;8.56;100.00;97480.34;5103791;28;20544;-64
2022/03/16 09:46:54;;;;;;;28.40;20.88;;;;;;;8.96;100.00;97476.03;5110481;28;20467;-65
2022/03/16 09:49:20;;;;;;;29.20;20.58;;;;;;;9.26;99.69;97484.28;5111051;28;20411;-65
2022/03/16 09:51:45;;;;;;;28.53;20.63;;;;;;;9.07;100.00;97487.69;5110893;28;20385;-64
2022/03/16 09:54:11;;;;;;;25.50;19.52;;;;;;;9.11;98.64;97484.47;5092696;28;20391;-63
2022/03/16 09:56:36;;;;;;;27.57;19.53;;;;;;;8.97;98.50;97495.91;5111241;28;20471;-64
2022/03/16 09:59:02;;;;;;;26.13;19.70;;;;;;;9.11;99.08;97484.47;5111139;28;20414;-65
2022/03/16 10:01:28;;;;;;;24.63;18.63;;;;;;;9.22;97.22;97485.69;5111036;28;20420;-64
2022/03/16 10:03:59;;;;;;;27.58;18.52;;;;;;;9.35;96.79;97480.47;5113539;28;20865;-65
2022/03/16 10:06:26;;;;;;;25.70;19.67;;;;;;;9.00;96.75;97479.84;5114861;28;20388;-64
2022/03/16 10:14:19;;;;;;;24.00;18.60;;;;;;;8.98;95.67;97476.59;5114739;28;20390;-65
2022/03/16 10:19:50;;;;;;;24.58;18.63;;;;;;;8.67;95.76;97474.56;5110798;28;20399;-65
2022/03/16 10:22:25;;;;;;;23.55;18.70;;;;;;;8.98;96.32;97473.19;5105541;28;20392;-65
2022/03/16 10:24:54;;;;;;;23.70;17.87;;;;;;;9.31;93.75;97473.22;5113915;28;20384;-65
2022/03/16 10:27:20;;;;;;;22.83;17.00;;;;;;;9.25;91.77;97469.59;5115330;28;20404;-64
2022/03/16 10:29:46;;;;;;;22.58;17.75;;;;;;;9.08;94.19;97463.16;5114411;28;20483;-65
2022/03/16 10:32:12;;;;;;;22.42;17.50;;;;;;;9.10;92.19;97467.19;5114746;28;20384;-64
2022/03/16 10:34:48;;;;;;;25.05;17.90;;;;;;;9.29;91.78;97460.34;5114368;28;20446;-65
2022/03/16 10:37:20;;;;;;;21.08;17.52;;;;;;;8.80;93.29;97452.06;5114255;28;20400;-65
2022/03/16 10:39:47;;;;;;;22.80;17.80;;;;;;;8.78;94.19;97454.88;5095281;28;20776;-64
2022/03/16 10:48:12;;;;;;;24.13;18.35;;;;;;;8.93;93.69;97460.72;5113767;28;20764;-64
2022/03/16 10:50:41;;;;;;;22.75;17.83;;;;;;;8.69;94.38;97446.38;5096007;28;20410;-64
2022/03/16 10:53:06;;;;;;;23.83;18.55;;;;;;;8.80;95.30;97457.28;5114196;28;20399;-64
2022/03/16 10:55:32;;;;;;;25.33;18.20;;;;;;;9.09;93.75;97454.28;5114014;28;20476;-63
2022/03/16 10:57:59;;;;;;;23.30;18.27;;;;;;;9.44;91.57;97449.66;5114256;28;20394;-65
2022/03/16 11:00:27;;;;;;;22.70;18.05;;;;;;;9.77;90.37;97444.38;5114032;28;20380;-64
2022/03/16 11:02:54;;;;;;;24.10;18.33;;;;;;;9.31;89.72;97436.59;5113844;28;20390;-64
2022/03/16 11:05:20;;;;;;;23.97;18.23;;;;;;;9.71;90.74;97443.38;5094695;28;20842;-63
2022/03/16 11:07:48;;;;;;;24.93;18.17;;;;;;;10.02;87.66;97434.84;5113646;28;20503;-64
2022/03/16 11:10:14;;;;;;;22.63;17.70;;;;;;;9.67;88.20;97444.81;5107386;28;20394;-65
2022/03/16 11:15:23;;;;;;;22.42;17.48;;;;;;;9.50;89.19;97433.97;5111023;28;20383;-64
2022/03/16 11:17:51;;;;;;;22.13;18.13;;;;;;;9.66;89.37;97431.91;5108370;28;20866;-64
2022/03/16 11:20:19;;;;;;;24.10;17.88;;;;;;;9.56;89.33;97424.50;5111758;28;20439;-64
2022/03/16 11:25:46;;;;;;;21.02;16.75;;;;;;;10.31;87.03;97434.34;5113312;28;20837;-64
2022/03/16 11:28:16;;;;;;;20.88;17.13;;;;;;;10.94;85.37;97438.84;5113040;28;20846;-63
2022/03/16 11:30:42;;;;;;;19.63;16.27;;;;;;;10.86;83.48;97434.66;5113396;28;20393;-63